sensor_id;sensor_type;location;lat;lon;timestamp;P1;durP1;ratioP1;P2;durP2;ratioP2
31660;SDS011;18267;52.234;7.444;2023-03-01T00:01:52;15.68;;;5.53;;
31660;SDS011;18267;52.234;7.444;2023-03-01T00:04:18;10.40;;;5.20;;
31660;SDS011;18267;52.234;7.444;2023-03-01T00:06:43;28.42;;;6.00;;
31660;SDS011;18267;52.234;7.444;2023-03-01T00:09:13;9.65;;;5.00;;
31660;SDS011;18267;52.234;7.444;2023-03-01T00:11:39;10.60;;;5.22;;
31660;SDS011;18267;52.234;7.444;2023-03-01T00:14:04;12.85;;;5.88;;
31660;SDS011;18267;52.234;7.444;2023-03-01T00:16:33;16.67;;;6.15;;
31660;SDS011;18267;52.234;7.444;2023-03-01T00:19:01;12.55;;;5.80;;
31660;SDS011;18267;52.234;7.444;2023-03-01T00:21:27;11.52;;;5.32;;
31660;SDS011;18267;52.234;7.444;2023-03-01T00:23:53;15.10;;;6.22;;
31660;SDS011;18267;52.234;7.444;2023-03-01T00:26:21;19.35;;;5.60;;
31660;SDS011;18267;52.234;7.444;2023-03-01T00:28:48;12.73;;;5.57;;
31660;SDS011;18267;52.234;7.444;2023-03-01T00:31:15;13.85;;;5.75;;
31660;SDS011;18267;52.234;7.444;2023-03-01T00:33:42;10.35;;;4.90;;
31660;SDS011;18267;52.234;7.444;2023-03-01T00:36:09;14.00;;;5.82;;
31660;SDS011;18267;52.234;7.444;2023-03-01T00:38:38;10.60;;;5.50;;
31660;SDS011;18267;52.234;7.444;2023-03-01T00:41:10;14.75;;;5.15;;
31660;SDS011;18267;52.234;7.444;2023-03-01T00:43:37;13.70;;;5.75;;
31660;SDS011;18267;52.234;7.444;2023-03-01T00:46:09;14.98;;;4.93;;
31660;SDS011;18267;52.234;7.444;2023-03-01T00:48:36;11.88;;;5.38;;
31660;SDS011;18267;52.234;7.444;2023-03-01T00:51:09;11.07;;;5.75;;
31660;SDS011;18267;52.234;7.444;2023-03-01T00:53:42;9.75;;;4.47;;
31660;SDS011;18267;52.234;7.444;2023-03-01T00:56:09;8.27;;;4.80;;
31660;SDS011;18267;52.234;7.444;2023-03-01T00:58:36;10.73;;;4.72;;
31660;SDS011;18267;52.234;7.444;2023-03-01T01:01:16;9.55;;;4.38;;
31660;SDS011;18267;52.234;7.444;2023-03-01T01:06:18;8.75;;;4.78;;
31660;SDS011;18267;52.234;7.444;2023-03-01T01:08:48;11.00;;;4.57;;
31660;SDS011;18267;52.234;7.444;2023-03-01T01:11:14;10.70;;;4.40;;
31660;SDS011;18267;52.234;7.444;2023-03-01T01:13:41;9.23;;;4.97;;
31660;SDS011;18267;52.234;7.444;2023-03-01T01:16:07;9.77;;;5.15;;
31660;SDS011;18267;52.234;7.444;2023-03-01T01:18:32;8.10;;;4.35;;
31660;SDS011;18267;52.234;7.444;2023-03-01T01:21:02;9.90;;;4.97;;
31660;SDS011;18267;52.234;7.444;2023-03-01T01:23:36;11.07;;;4.70;;
31660;SDS011;18267;52.234;7.444;2023-03-01T01:26:03;8.85;;;5.38;;
31660;SDS011;18267;52.234;7.444;2023-03-01T01:28:33;9.73;;;5.00;;
31660;SDS011;18267;52.234;7.444;2023-03-01T01:30:59;8.52;;;4.70;;
31660;SDS011;18267;52.234;7.444;2023-03-01T01:33:25;11.70;;;5.15;;
31660;SDS011;18267;52.234;7.444;2023-03-01T01:35:50;11.65;;;5.30;;
31660;SDS011;18267;52.234;7.444;2023-03-01T01:38:17;11.18;;;5.65;;
31660;SDS011;18267;52.234;7.444;2023-03-01T01:40:45;7.97;;;4.75;;
31660;SDS011;18267;52.234;7.444;2023-03-01T01:43:24;12.25;;;5.55;;
31660;SDS011;18267;52.234;7.444;2023-03-01T01:45:55;8.88;;;4.90;;
31660;SDS011;18267;52.234;7.444;2023-03-01T01:48:28;9.65;;;5.00;;
31660;SDS011;18267;52.234;7.444;2023-03-01T01:51:05;11.60;;;5.60;;
31660;SDS011;18267;52.234;7.444;2023-03-01T01:53:34;9.73;;;4.90;;
31660;SDS011;18267;52.234;7.444;2023-03-01T01:56:01;8.07;;;4.88;;
31660;SDS011;18267;52.234;7.444;2023-03-01T01:58:28;11.80;;;4.68;;
31660;SDS011;18267;52.234;7.444;2023-03-01T02:00:55;14.57;;;5.38;;
31660;SDS011;18267;52.234;7.444;2023-03-01T02:03:28;10.40;;;5.57;;
31660;SDS011;18267;52.234;7.444;2023-03-01T02:08:28;13.55;;;4.35;;
31660;SDS011;18267;52.234;7.444;2023-03-01T02:10:58;7.88;;;4.75;;
31660;SDS011;18267;52.234;7.444;2023-03-01T02:13:25;9.32;;;5.20;;
31660;SDS011;18267;52.234;7.444;2023-03-01T02:15:52;9.82;;;5.25;;
31660;SDS011;18267;52.234;7.444;2023-03-01T02:18:18;14.55;;;5.60;;
31660;SDS011;18267;52.234;7.444;2023-03-01T02:23:53;11.00;;;4.85;;
31660;SDS011;18267;52.234;7.444;2023-03-01T02:26:23;10.55;;;5.45;;
31660;SDS011;18267;52.234;7.444;2023-03-01T02:28:58;11.02;;;5.03;;
31660;SDS011;18267;52.234;7.444;2023-03-01T02:31:24;7.35;;;4.57;;
31660;SDS011;18267;52.234;7.444;2023-03-01T02:34:15;8.63;;;4.47;;
31660;SDS011;18267;52.234;7.444;2023-03-01T02:36:49;10.27;;;5.82;;
31660;SDS011;18267;52.234;7.444;2023-03-01T02:39:22;12.90;;;5.05;;
31660;SDS011;18267;52.234;7.444;2023-03-01T02:41:52;6.50;;;4.57;;
31660;SDS011;18267;52.234;7.444;2023-03-01T02:44:19;10.68;;;5.25;;
31660;SDS011;18267;52.234;7.444;2023-03-01T02:46:52;11.80;;;4.78;;
31660;SDS011;18267;52.234;7.444;2023-03-01T02:49:27;9.30;;;4.50;;
31660;SDS011;18267;52.234;7.444;2023-03-01T02:57:30;7.63;;;3.50;;
31660;SDS011;18267;52.234;7.444;2023-03-01T02:59:57;9.38;;;4.38;;
31660;SDS011;18267;52.234;7.444;2023-03-01T03:02:32;9.18;;;4.53;;
31660;SDS011;18267;52.234;7.444;2023-03-01T03:05:04;5.00;;;3.50;;
31660;SDS011;18267;52.234;7.444;2023-03-01T03:07:35;13.23;;;4.95;;
31660;SDS011;18267;52.234;7.444;2023-03-01T03:10:03;13.13;;;3.97;;
31660;SDS011;18267;52.234;7.444;2023-03-01T03:12:31;10.18;;;4.88;;
31660;SDS011;18267;52.234;7.444;2023-03-01T03:14:57;8.23;;;4.47;;
31660;SDS011;18267;52.234;7.444;2023-03-01T03:17:22;6.85;;;3.97;;
31660;SDS011;18267;52.234;7.444;2023-03-01T03:19:48;6.25;;;4.38;;
31660;SDS011;18267;52.234;7.444;2023-03-01T03:22:13;9.35;;;4.65;;
31660;SDS011;18267;52.234;7.444;2023-03-01T03:24:39;7.63;;;4.05;;
31660;SDS011;18267;52.234;7.444;2023-03-01T03:27:05;5.90;;;4.65;;
31660;SDS011;18267;52.234;7.444;2023-03-01T03:29:31;7.32;;;4.70;;
31660;SDS011;18267;52.234;7.444;2023-03-01T03:31:57;13.30;;;4.30;;
31660;SDS011;18267;52.234;7.444;2023-03-01T03:34:22;9.02;;;4.38;;
31660;SDS011;18267;52.234;7.444;2023-03-01T03:36:49;7.97;;;4.40;;
31660;SDS011;18267;52.234;7.444;2023-03-01T03:39:24;8.88;;;4.63;;
31660;SDS011;18267;52.234;7.444;2023-03-01T03:41:51;9.40;;;4.70;;
31660;SDS011;18267;52.234;7.444;2023-03-01T03:44:17;12.40;;;4.15;;
31660;SDS011;18267;52.234;7.444;2023-03-01T03:46:43;8.07;;;5.28;;
31660;SDS011;18267;52.234;7.444;2023-03-01T03:49:08;10.63;;;4.38;;
31660;SDS011;18267;52.234;7.444;2023-03-01T03:51:34;7.22;;;4.03;;
31660;SDS011;18267;52.234;7.444;2023-03-01T03:53:59;7.90;;;4.07;;
31660;SDS011;18267;52.234;7.444;2023-03-01T03:56:25;10.77;;;4.72;;
31660;SDS011;18267;52.234;7.444;2023-03-01T03:58:50;10.05;;;4.07;;
31660;SDS011;18267;52.234;7.444;2023-03-01T04:01:17;6.75;;;4.75;;
31660;SDS011;18267;52.234;7.444;2023-03-01T04:03:42;9.68;;;4.75;;
31660;SDS011;18267;52.234;7.444;2023-03-01T04:06:11;6.68;;;4.25;;
31660;SDS011;18267;52.234;7.444;2023-03-01T04:08:38;9.10;;;4.35;;
31660;SDS011;18267;52.234;7.444;2023-03-01T04:11:04;7.90;;;5.18;;
31660;SDS011;18267;52.234;7.444;2023-03-01T04:13:49;8.40;;;4.65;;
31660;SDS011;18267;52.234;7.444;2023-03-01T04:16:15;8.82;;;5.43;;
31660;SDS011;18267;52.234;7.444;2023-03-01T04:18:41;9.75;;;4.90;;
31660;SDS011;18267;52.234;7.444;2023-03-01T04:21:06;11.50;;;4.90;;
31660;SDS011;18267;52.234;7.444;2023-03-01T04:23:32;10.25;;;4.45;;
31660;SDS011;18267;52.234;7.444;2023-03-01T04:25:58;10.43;;;4.15;;
31660;SDS011;18267;52.234;7.444;2023-03-01T04:28:28;6.88;;;4.20;;
31660;SDS011;18267;52.234;7.444;2023-03-01T04:31:06;6.13;;;4.15;;
31660;SDS011;18267;52.234;7.444;2023-03-01T04:33:48;7.88;;;4.25;;
31660;SDS011;18267;52.234;7.444;2023-03-01T04:36:16;11.85;;;4.78;;
31660;SDS011;18267;52.234;7.444;2023-03-01T04:38:43;9.38;;;4.63;;
31660;SDS011;18267;52.234;7.444;2023-03-01T04:41:12;10.40;;;4.10;;
31660;SDS011;18267;52.234;7.444;2023-03-01T04:43:38;7.78;;;4.60;;
31660;SDS011;18267;52.234;7.444;2023-03-01T04:46:05;13.07;;;4.68;;
31660;SDS011;18267;52.234;7.444;2023-03-01T04:48:34;6.53;;;4.53;;
31660;SDS011;18267;52.234;7.444;2023-03-01T04:51:00;9.45;;;5.10;;
31660;SDS011;18267;52.234;7.444;2023-03-01T04:53:27;14.52;;;4.35;;
31660;SDS011;18267;52.234;7.444;2023-03-01T04:55:53;8.20;;;4.25;;
31660;SDS011;18267;52.234;7.444;2023-03-01T04:58:20;7.10;;;4.63;;
31660;SDS011;18267;52.234;7.444;2023-03-01T05:00:49;9.45;;;4.28;;
31660;SDS011;18267;52.234;7.444;2023-03-01T05:03:15;7.63;;;4.13;;
31660;SDS011;18267;52.234;7.444;2023-03-01T05:05:43;5.18;;;4.30;;
31660;SDS011;18267;52.234;7.444;2023-03-01T05:08:10;10.32;;;4.80;;
31660;SDS011;18267;52.234;7.444;2023-03-01T05:10:46;10.55;;;4.68;;
31660;SDS011;18267;52.234;7.444;2023-03-01T05:13:14;9.65;;;4.22;;
31660;SDS011;18267;52.234;7.444;2023-03-01T05:15:46;9.57;;;4.10;;
31660;SDS011;18267;52.234;7.444;2023-03-01T05:18:25;8.88;;;4.85;;
31660;SDS011;18267;52.234;7.444;2023-03-01T05:20:53;11.20;;;5.28;;
31660;SDS011;18267;52.234;7.444;2023-03-01T05:23:21;11.70;;;5.13;;
31660;SDS011;18267;52.234;7.444;2023-03-01T05:25:47;14.85;;;4.82;;
31660;SDS011;18267;52.234;7.444;2023-03-01T05:28:14;10.57;;;3.80;;
31660;SDS011;18267;52.234;7.444;2023-03-01T05:30:40;10.40;;;4.70;;
31660;SDS011;18267;52.234;7.444;2023-03-01T05:33:06;8.77;;;4.75;;
31660;SDS011;18267;52.234;7.444;2023-03-01T05:35:38;12.38;;;4.63;;
31660;SDS011;18267;52.234;7.444;2023-03-01T05:38:04;7.32;;;4.00;;
31660;SDS011;18267;52.234;7.444;2023-03-01T05:40:29;13.07;;;4.07;;
31660;SDS011;18267;52.234;7.444;2023-03-01T05:42:58;7.93;;;4.18;;
31660;SDS011;18267;52.234;7.444;2023-03-01T05:45:24;8.00;;;4.22;;
31660;SDS011;18267;52.234;7.444;2023-03-01T05:47:51;9.90;;;4.50;;
31660;SDS011;18267;52.234;7.444;2023-03-01T05:50:22;12.05;;;4.55;;
31660;SDS011;18267;52.234;7.444;2023-03-01T05:52:51;7.88;;;4.85;;
31660;SDS011;18267;52.234;7.444;2023-03-01T05:55:21;8.88;;;4.97;;
31660;SDS011;18267;52.234;7.444;2023-03-01T05:57:47;12.25;;;4.57;;
31660;SDS011;18267;52.234;7.444;2023-03-01T06:00:15;7.82;;;4.93;;
31660;SDS011;18267;52.234;7.444;2023-03-01T06:02:42;9.95;;;4.88;;
31660;SDS011;18267;52.234;7.444;2023-03-01T06:05:09;8.63;;;4.45;;
31660;SDS011;18267;52.234;7.444;2023-03-01T06:07:36;8.95;;;4.75;;
31660;SDS011;18267;52.234;7.444;2023-03-01T06:10:03;11.63;;;4.47;;
31660;SDS011;18267;52.234;7.444;2023-03-01T06:12:30;17.85;;;5.00;;
31660;SDS011;18267;52.234;7.444;2023-03-01T06:14:56;10.25;;;4.78;;
31660;SDS011;18267;52.234;7.444;2023-03-01T06:17:22;13.90;;;4.80;;
31660;SDS011;18267;52.234;7.444;2023-03-01T06:19:47;10.48;;;4.93;;
31660;SDS011;18267;52.234;7.444;2023-03-01T06:22:13;16.67;;;4.93;;
31660;SDS011;18267;52.234;7.444;2023-03-01T06:24:38;11.77;;;5.28;;
31660;SDS011;18267;52.234;7.444;2023-03-01T06:27:04;11.13;;;4.80;;
31660;SDS011;18267;52.234;7.444;2023-03-01T06:29:30;7.95;;;5.28;;
31660;SDS011;18267;52.234;7.444;2023-03-01T06:31:55;12.40;;;5.05;;
31660;SDS011;18267;52.234;7.444;2023-03-01T06:34:21;10.77;;;5.00;;
31660;SDS011;18267;52.234;7.444;2023-03-01T06:36:46;15.57;;;6.60;;
31660;SDS011;18267;52.234;7.444;2023-03-01T06:39:12;13.05;;;5.07;;
31660;SDS011;18267;52.234;7.444;2023-03-01T06:41:38;8.45;;;4.93;;
31660;SDS011;18267;52.234;7.444;2023-03-01T06:44:03;13.85;;;6.57;;
31660;SDS011;18267;52.234;7.444;2023-03-01T06:46:29;14.02;;;5.80;;
31660;SDS011;18267;52.234;7.444;2023-03-01T06:48:55;18.30;;;5.00;;
31660;SDS011;18267;52.234;7.444;2023-03-01T06:51:21;10.35;;;5.40;;
31660;SDS011;18267;52.234;7.444;2023-03-01T06:53:46;13.15;;;6.10;;
31660;SDS011;18267;52.234;7.444;2023-03-01T06:56:12;8.85;;;4.35;;
31660;SDS011;18267;52.234;7.444;2023-03-01T06:58:37;18.10;;;7.85;;
31660;SDS011;18267;52.234;7.444;2023-03-01T07:01:07;84.15;;;27.23;;
31660;SDS011;18267;52.234;7.444;2023-03-01T07:03:33;37.13;;;14.38;;
31660;SDS011;18267;52.234;7.444;2023-03-01T07:05:58;22.63;;;9.18;;
31660;SDS011;18267;52.234;7.444;2023-03-01T07:08:24;15.73;;;7.47;;
31660;SDS011;18267;52.234;7.444;2023-03-01T07:10:56;9.02;;;5.25;;
31660;SDS011;18267;52.234;7.444;2023-03-01T07:13:22;8.25;;;5.30;;
31660;SDS011;18267;52.234;7.444;2023-03-01T07:15:48;13.30;;;6.10;;
31660;SDS011;18267;52.234;7.444;2023-03-01T07:18:14;12.93;;;5.90;;
31660;SDS011;18267;52.234;7.444;2023-03-01T07:20:39;12.68;;;6.05;;
31660;SDS011;18267;52.234;7.444;2023-03-01T07:23:05;17.17;;;5.35;;
31660;SDS011;18267;52.234;7.444;2023-03-01T07:25:31;10.63;;;5.25;;
31660;SDS011;18267;52.234;7.444;2023-03-01T07:27:57;8.25;;;5.18;;
31660;SDS011;18267;52.234;7.444;2023-03-01T07:30:23;9.10;;;5.35;;
31660;SDS011;18267;52.234;7.444;2023-03-01T07:32:50;7.80;;;5.45;;
31660;SDS011;18267;52.234;7.444;2023-03-01T07:35:16;11.90;;;6.13;;
31660;SDS011;18267;52.234;7.444;2023-03-01T07:37:42;9.57;;;5.28;;
31660;SDS011;18267;52.234;7.444;2023-03-01T07:40:08;12.98;;;5.47;;
31660;SDS011;18267;52.234;7.444;2023-03-01T07:42:34;14.85;;;5.68;;
31660;SDS011;18267;52.234;7.444;2023-03-01T07:45:00;10.40;;;5.78;;
31660;SDS011;18267;52.234;7.444;2023-03-01T07:47:25;11.65;;;6.15;;
31660;SDS011;18267;52.234;7.444;2023-03-01T07:49:51;14.60;;;6.05;;
31660;SDS011;18267;52.234;7.444;2023-03-01T07:52:16;12.65;;;5.57;;
31660;SDS011;18267;52.234;7.444;2023-03-01T07:54:42;9.55;;;4.35;;
31660;SDS011;18267;52.234;7.444;2023-03-01T07:57:09;6.75;;;5.00;;
31660;SDS011;18267;52.234;7.444;2023-03-01T07:59:35;8.02;;;5.28;;
31660;SDS011;18267;52.234;7.444;2023-03-01T08:02:00;9.02;;;4.70;;
31660;SDS011;18267;52.234;7.444;2023-03-01T08:04:26;10.10;;;5.47;;
31660;SDS011;18267;52.234;7.444;2023-03-01T08:06:52;12.68;;;5.32;;
31660;SDS011;18267;52.234;7.444;2023-03-01T08:09:18;10.15;;;5.68;;
31660;SDS011;18267;52.234;7.444;2023-03-01T08:11:43;5.50;;;3.88;;
31660;SDS011;18267;52.234;7.444;2023-03-01T08:14:09;9.57;;;4.70;;
31660;SDS011;18267;52.234;7.444;2023-03-01T08:16:35;6.60;;;4.60;;
31660;SDS011;18267;52.234;7.444;2023-03-01T08:19:05;9.70;;;5.10;;
31660;SDS011;18267;52.234;7.444;2023-03-01T08:21:31;7.32;;;4.55;;
31660;SDS011;18267;52.234;7.444;2023-03-01T08:23:59;12.02;;;6.05;;
31660;SDS011;18267;52.234;7.444;2023-03-01T08:26:25;13.55;;;5.78;;
31660;SDS011;18267;52.234;7.444;2023-03-01T08:28:51;14.70;;;6.47;;
31660;SDS011;18267;52.234;7.444;2023-03-01T08:33:46;11.75;;;6.18;;
31660;SDS011;18267;52.234;7.444;2023-03-01T08:36:15;7.45;;;4.85;;
31660;SDS011;18267;52.234;7.444;2023-03-01T08:38:41;11.07;;;4.93;;
31660;SDS011;18267;52.234;7.444;2023-03-01T08:41:07;11.18;;;4.30;;
31660;SDS011;18267;52.234;7.444;2023-03-01T08:43:32;12.30;;;5.22;;
31660;SDS011;18267;52.234;7.444;2023-03-01T08:45:58;9.18;;;4.60;;
31660;SDS011;18267;52.234;7.444;2023-03-01T08:48:24;7.15;;;4.70;;
31660;SDS011;18267;52.234;7.444;2023-03-01T08:50:50;8.88;;;4.45;;
31660;SDS011;18267;52.234;7.444;2023-03-01T08:53:15;7.05;;;4.10;;
31660;SDS011;18267;52.234;7.444;2023-03-01T08:55:41;7.68;;;4.47;;
31660;SDS011;18267;52.234;7.444;2023-03-01T08:58:06;4.00;;;3.58;;
31660;SDS011;18267;52.234;7.444;2023-03-01T09:00:32;6.20;;;3.88;;
31660;SDS011;18267;52.234;7.444;2023-03-01T09:03:00;8.80;;;4.68;;
31660;SDS011;18267;52.234;7.444;2023-03-01T09:05:25;7.70;;;4.82;;
31660;SDS011;18267;52.234;7.444;2023-03-01T09:07:51;10.18;;;4.45;;
31660;SDS011;18267;52.234;7.444;2023-03-01T09:10:16;6.90;;;4.35;;
31660;SDS011;18267;52.234;7.444;2023-03-01T09:12:43;8.68;;;4.30;;
31660;SDS011;18267;52.234;7.444;2023-03-01T09:15:08;6.68;;;4.05;;
31660;SDS011;18267;52.234;7.444;2023-03-01T09:17:34;7.47;;;4.40;;
31660;SDS011;18267;52.234;7.444;2023-03-01T09:20:00;10.75;;;4.35;;
31660;SDS011;18267;52.234;7.444;2023-03-01T09:22:25;7.18;;;4.68;;
31660;SDS011;18267;52.234;7.444;2023-03-01T09:24:51;6.90;;;3.92;;
31660;SDS011;18267;52.234;7.444;2023-03-01T09:27:17;9.02;;;3.78;;
31660;SDS011;18267;52.234;7.444;2023-03-01T09:29:43;6.05;;;4.07;;
31660;SDS011;18267;52.234;7.444;2023-03-01T09:32:09;8.13;;;4.10;;
31660;SDS011;18267;52.234;7.444;2023-03-01T09:34:35;6.55;;;2.88;;
31660;SDS011;18267;52.234;7.444;2023-03-01T09:37:21;8.32;;;3.33;;
31660;SDS011;18267;52.234;7.444;2023-03-01T09:39:46;3.25;;;2.35;;
31660;SDS011;18267;52.234;7.444;2023-03-01T09:42:12;5.43;;;2.50;;
31660;SDS011;18267;52.234;7.444;2023-03-01T09:47:26;5.45;;;2.95;;
31660;SDS011;18267;52.234;7.444;2023-03-01T09:54:58;10.73;;;3.38;;
31660;SDS011;18267;52.234;7.444;2023-03-01T10:02:43;6.63;;;2.80;;
31660;SDS011;18267;52.234;7.444;2023-03-01T10:10:44;4.93;;;2.65;;
31660;SDS011;18267;52.234;7.444;2023-03-01T10:13:29;5.72;;;3.03;;
31660;SDS011;18267;52.234;7.444;2023-03-01T10:22:20;4.57;;;3.17;;
31660;SDS011;18267;52.234;7.444;2023-03-01T10:24:52;9.52;;;3.42;;
31660;SDS011;18267;52.234;7.444;2023-03-01T10:27:22;24.10;;;4.20;;
31660;SDS011;18267;52.234;7.444;2023-03-01T10:32:19;9.77;;;3.85;;
31660;SDS011;18267;52.234;7.444;2023-03-01T10:34:47;5.10;;;3.28;;
31660;SDS011;18267;52.234;7.444;2023-03-01T10:42:35;5.25;;;3.67;;
31660;SDS011;18267;52.234;7.444;2023-03-01T10:53:38;8.55;;;3.95;;
31660;SDS011;18267;52.234;7.444;2023-03-01T10:58:39;7.30;;;3.60;;
31660;SDS011;18267;52.234;7.444;2023-03-01T11:01:27;8.50;;;4.22;;
31660;SDS011;18267;52.234;7.444;2023-03-01T11:06:32;8.57;;;3.80;;
31660;SDS011;18267;52.234;7.444;2023-03-01T11:09:15;4.32;;;3.05;;
31660;SDS011;18267;52.234;7.444;2023-03-01T11:11:43;6.55;;;3.45;;
31660;SDS011;18267;52.234;7.444;2023-03-01T11:14:45;9.88;;;3.95;;
31660;SDS011;18267;52.234;7.444;2023-03-01T11:17:11;4.68;;;3.45;;
31660;SDS011;18267;52.234;7.444;2023-03-01T11:19:38;5.75;;;3.78;;
31660;SDS011;18267;52.234;7.444;2023-03-01T11:22:11;9.20;;;4.00;;
31660;SDS011;18267;52.234;7.444;2023-03-01T11:27:13;5.57;;;3.03;;
31660;SDS011;18267;52.234;7.444;2023-03-01T11:30:00;9.93;;;4.43;;
31660;SDS011;18267;52.234;7.444;2023-03-01T11:32:33;7.40;;;3.83;;
31660;SDS011;18267;52.234;7.444;2023-03-01T11:35:09;11.20;;;3.60;;
31660;SDS011;18267;52.234;7.444;2023-03-01T11:37:44;7.40;;;3.28;;
31660;SDS011;18267;52.234;7.444;2023-03-01T11:48:54;5.30;;;3.08;;
31660;SDS011;18267;52.234;7.444;2023-03-01T11:54:28;2.95;;;2.65;;
31660;SDS011;18267;52.234;7.444;2023-03-01T12:05:18;3.85;;;2.47;;
31660;SDS011;18267;52.234;7.444;2023-03-01T12:11:00;3.65;;;2.60;;
31660;SDS011;18267;52.234;7.444;2023-03-01T12:19:15;4.50;;;1.80;;
31660;SDS011;18267;52.234;7.444;2023-03-01T12:22:24;5.05;;;1.85;;
31660;SDS011;18267;52.234;7.444;2023-03-01T12:36:31;5.88;;;2.40;;
31660;SDS011;18267;52.234;7.444;2023-03-01T12:41:55;5.00;;;2.38;;
31660;SDS011;18267;52.234;7.444;2023-03-01T12:53:23;4.93;;;2.67;;
31660;SDS011;18267;52.234;7.444;2023-03-01T12:55:52;7.25;;;2.90;;
31660;SDS011;18267;52.234;7.444;2023-03-01T12:58:24;8.55;;;2.72;;
31660;SDS011;18267;52.234;7.444;2023-03-01T13:09:18;5.10;;;2.53;;
31660;SDS011;18267;52.234;7.444;2023-03-01T13:12:03;5.55;;;2.53;;
31660;SDS011;18267;52.234;7.444;2023-03-01T13:17:47;7.80;;;2.45;;
31660;SDS011;18267;52.234;7.444;2023-03-01T13:20:18;5.85;;;2.42;;
31660;SDS011;18267;52.234;7.444;2023-03-01T13:22:46;5.50;;;2.65;;
31660;SDS011;18267;52.234;7.444;2023-03-01T13:25:16;3.92;;;2.80;;
31660;SDS011;18267;52.234;7.444;2023-03-01T13:27:44;4.53;;;2.60;;
31660;SDS011;18267;52.234;7.444;2023-03-01T13:30:56;4.75;;;2.80;;
31660;SDS011;18267;52.234;7.444;2023-03-01T13:33:33;4.03;;;2.53;;
31660;SDS011;18267;52.234;7.444;2023-03-01T13:36:04;8.45;;;2.70;;
31660;SDS011;18267;52.234;7.444;2023-03-01T13:44:25;4.85;;;2.50;;
31660;SDS011;18267;52.234;7.444;2023-03-01T13:49:44;5.47;;;2.25;;
31660;SDS011;18267;52.234;7.444;2023-03-01T13:52:38;2.85;;;2.20;;
31660;SDS011;18267;52.234;7.444;2023-03-01T13:57:38;6.55;;;2.55;;
31660;SDS011;18267;52.234;7.444;2023-03-01T14:00:05;6.03;;;2.42;;
31660;SDS011;18267;52.234;7.444;2023-03-01T14:02:31;3.50;;;1.73;;
31660;SDS011;18267;52.234;7.444;2023-03-01T14:04:58;7.53;;;3.03;;
31660;SDS011;18267;52.234;7.444;2023-03-01T14:07:24;4.35;;;2.60;;
31660;SDS011;18267;52.234;7.444;2023-03-01T14:09:55;3.53;;;2.25;;
31660;SDS011;18267;52.234;7.444;2023-03-01T14:20:23;4.45;;;2.13;;
31660;SDS011;18267;52.234;7.444;2023-03-01T14:22:58;3.67;;;2.30;;
31660;SDS011;18267;52.234;7.444;2023-03-01T14:25:36;3.85;;;2.25;;
31660;SDS011;18267;52.234;7.444;2023-03-01T14:28:14;3.78;;;1.85;;
31660;SDS011;18267;52.234;7.444;2023-03-01T14:30:51;2.90;;;1.88;;
31660;SDS011;18267;52.234;7.444;2023-03-01T14:35:55;2.80;;;1.92;;
31660;SDS011;18267;52.234;7.444;2023-03-01T14:38:28;3.63;;;1.98;;
31660;SDS011;18267;52.234;7.444;2023-03-01T14:41:00;3.30;;;2.17;;
31660;SDS011;18267;52.234;7.444;2023-03-01T14:43:29;4.47;;;1.77;;
31660;SDS011;18267;52.234;7.444;2023-03-01T14:45:55;4.53;;;2.05;;
31660;SDS011;18267;52.234;7.444;2023-03-01T14:48:21;4.03;;;1.90;;
31660;SDS011;18267;52.234;7.444;2023-03-01T14:50:47;2.08;;;1.63;;
31660;SDS011;18267;52.234;7.444;2023-03-01T14:53:16;2.90;;;1.52;;
31660;SDS011;18267;52.234;7.444;2023-03-01T14:55:44;5.00;;;1.63;;
31660;SDS011;18267;52.234;7.444;2023-03-01T14:58:14;3.25;;;1.58;;
31660;SDS011;18267;52.234;7.444;2023-03-01T15:00:46;3.17;;;1.70;;
31660;SDS011;18267;52.234;7.444;2023-03-01T15:03:41;4.63;;;2.10;;
31660;SDS011;18267;52.234;7.444;2023-03-01T15:06:08;3.60;;;1.52;;
31660;SDS011;18267;52.234;7.444;2023-03-01T15:08:36;2.70;;;1.55;;
31660;SDS011;18267;52.234;7.444;2023-03-01T15:13:39;5.05;;;1.75;;
31660;SDS011;18267;52.234;7.444;2023-03-01T15:18:36;4.05;;;1.75;;
31660;SDS011;18267;52.234;7.444;2023-03-01T15:21:13;3.55;;;1.75;;
31660;SDS011;18267;52.234;7.444;2023-03-01T15:23:49;3.17;;;1.85;;
31660;SDS011;18267;52.234;7.444;2023-03-01T15:26:21;4.22;;;2.55;;
31660;SDS011;18267;52.234;7.444;2023-03-01T15:29:01;7.60;;;1.95;;
31660;SDS011;18267;52.234;7.444;2023-03-01T15:31:29;5.03;;;1.83;;
31660;SDS011;18267;52.234;7.444;2023-03-01T15:36:49;5.25;;;2.00;;
31660;SDS011;18267;52.234;7.444;2023-03-01T15:41:58;2.15;;;1.70;;
31660;SDS011;18267;52.234;7.444;2023-03-01T15:44:29;5.25;;;1.95;;
31660;SDS011;18267;52.234;7.444;2023-03-01T15:46:56;5.93;;;2.40;;
31660;SDS011;18267;52.234;7.444;2023-03-01T15:52:05;2.50;;;1.55;;
31660;SDS011;18267;52.234;7.444;2023-03-01T15:54:38;8.18;;;2.40;;
31660;SDS011;18267;52.234;7.444;2023-03-01T15:57:07;5.00;;;2.08;;
31660;SDS011;18267;52.234;7.444;2023-03-01T15:59:37;6.45;;;2.08;;
31660;SDS011;18267;52.234;7.444;2023-03-01T16:02:07;2.67;;;2.10;;
31660;SDS011;18267;52.234;7.444;2023-03-01T16:04:34;3.55;;;1.30;;
31660;SDS011;18267;52.234;7.444;2023-03-01T16:06:59;2.03;;;1.58;;
31660;SDS011;18267;52.234;7.444;2023-03-01T16:09:26;4.57;;;2.22;;
31660;SDS011;18267;52.234;7.444;2023-03-01T16:11:52;4.90;;;2.15;;
31660;SDS011;18267;52.234;7.444;2023-03-01T16:14:18;4.78;;;2.17;;
31660;SDS011;18267;52.234;7.444;2023-03-01T16:16:44;2.90;;;1.80;;
31660;SDS011;18267;52.234;7.444;2023-03-01T16:19:11;1.85;;;1.67;;
31660;SDS011;18267;52.234;7.444;2023-03-01T16:21:36;3.75;;;1.98;;
31660;SDS011;18267;52.234;7.444;2023-03-01T16:24:03;3.28;;;1.88;;
31660;SDS011;18267;52.234;7.444;2023-03-01T16:26:29;7.80;;;2.53;;
31660;SDS011;18267;52.234;7.444;2023-03-01T16:28:55;4.90;;;2.10;;
31660;SDS011;18267;52.234;7.444;2023-03-01T16:31:21;7.28;;;2.50;;
31660;SDS011;18267;52.234;7.444;2023-03-01T16:33:48;3.28;;;2.10;;
31660;SDS011;18267;52.234;7.444;2023-03-01T16:36:17;5.13;;;2.78;;
31660;SDS011;18267;52.234;7.444;2023-03-01T16:38:49;13.30;;;2.90;;
31660;SDS011;18267;52.234;7.444;2023-03-01T16:41:16;4.43;;;2.22;;
31660;SDS011;18267;52.234;7.444;2023-03-01T16:43:43;4.82;;;2.60;;
31660;SDS011;18267;52.234;7.444;2023-03-01T16:46:21;6.60;;;3.50;;
31660;SDS011;18267;52.234;7.444;2023-03-01T16:48:49;3.65;;;2.33;;
31660;SDS011;18267;52.234;7.444;2023-03-01T16:51:15;5.18;;;2.55;;
31660;SDS011;18267;52.234;7.444;2023-03-01T16:53:41;5.07;;;2.70;;
31660;SDS011;18267;52.234;7.444;2023-03-01T16:56:09;11.15;;;3.88;;
31660;SDS011;18267;52.234;7.444;2023-03-01T16:58:36;5.28;;;3.30;;
31660;SDS011;18267;52.234;7.444;2023-03-01T17:01:10;7.65;;;3.53;;
31660;SDS011;18267;52.234;7.444;2023-03-01T17:03:38;3.20;;;2.50;;
31660;SDS011;18267;52.234;7.444;2023-03-01T17:06:05;13.45;;;4.13;;
31660;SDS011;18267;52.234;7.444;2023-03-01T17:08:33;6.68;;;3.80;;
31660;SDS011;18267;52.234;7.444;2023-03-01T17:11:12;5.60;;;3.95;;
31660;SDS011;18267;52.234;7.444;2023-03-01T17:13:40;7.13;;;3.22;;
31660;SDS011;18267;52.234;7.444;2023-03-01T17:16:07;9.40;;;3.05;;
31660;SDS011;18267;52.234;7.444;2023-03-01T17:18:35;4.78;;;2.58;;
31660;SDS011;18267;52.234;7.444;2023-03-01T17:21:02;8.50;;;4.85;;
31660;SDS011;18267;52.234;7.444;2023-03-01T17:23:29;9.48;;;4.00;;
31660;SDS011;18267;52.234;7.444;2023-03-01T17:25:55;4.35;;;3.15;;
31660;SDS011;18267;52.234;7.444;2023-03-01T17:28:22;5.60;;;4.25;;
31660;SDS011;18267;52.234;7.444;2023-03-01T17:30:50;8.00;;;4.22;;
31660;SDS011;18267;52.234;7.444;2023-03-01T17:33:16;7.95;;;5.20;;
31660;SDS011;18267;52.234;7.444;2023-03-01T17:35:42;11.10;;;5.70;;
31660;SDS011;18267;52.234;7.444;2023-03-01T17:38:11;25.33;;;11.30;;